createdAt,value
2019-02-17T00:04:30.476Z,69.10
2019-02-17T00:09:32.728Z,64.23
2019-02-17T00:14:34.293Z,60.57
2019-02-17T00:19:35.933Z,62.10
2019-02-17T00:24:37.581Z,59.03
2019-02-17T00:29:39.137Z,64.97
2019-02-17T00:34:40.711Z,60.67
2019-02-17T00:39:42.305Z,61.27
2019-02-17T00:44:44.006Z,65.60
2019-02-17T00:49:45.612Z,62.20
2019-02-17T00:54:47.191Z,64.00
2019-02-17T00:59:48.791Z,59.77
2019-02-17T01:04:50.333Z,56.33
2019-02-17T01:09:51.973Z,57.30
2019-02-17T01:14:54.018Z,59.40
2019-02-17T01:19:56.078Z,55.97
2019-02-17T01:24:57.716Z,56.40
2019-02-17T01:29:59.278Z,59.63
2019-02-17T01:35:00.935Z,57.57
2019-02-17T01:40:03.291Z,58.73
2019-02-17T01:45:05.469Z,52.57
2019-02-17T01:50:07.340Z,57.20
2019-02-17T01:55:09.054Z,55.70
2019-02-17T02:00:10.899Z,52.97
2019-02-17T02:05:12.464Z,55.53
2019-02-17T02:10:14.061Z,54.17
2019-02-17T02:15:15.612Z,61.13
2019-02-17T02:20:19.515Z,60.03
2019-02-17T02:25:21.101Z,59.10
2019-02-17T02:30:23.254Z,55.27
2019-02-17T02:35:24.846Z,48.87
2019-02-17T02:40:26.820Z,55.67
2019-02-17T02:45:28.382Z,50.30
2019-02-17T02:50:29.961Z,48.27
2019-02-17T02:55:31.526Z,52.77
2019-02-17T03:00:33.122Z,53.10
2019-02-17T03:05:35.488Z,55.97
2019-02-17T03:10:37.206Z,61.17
2019-02-17T03:15:38.825Z,57.07
2019-02-17T03:20:40.509Z,60.77
2019-02-17T03:25:45.171Z,56.93
2019-02-17T03:30:46.369Z,63.20
2019-02-17T03:35:48.589Z,60.57
2019-02-17T03:40:50.878Z,56.93
2019-02-17T03:45:52.543Z,57.87
2019-02-17T03:50:54.154Z,56.57
2019-02-17T03:55:56.124Z,60.03
2019-02-17T04:00:58.000Z,59.30
2019-02-17T04:05:59.595Z,55.03
2019-02-17T04:11:01.143Z,58.50
2019-02-17T04:16:02.704Z,59.50
2019-02-17T04:21:04.313Z,55.03
2019-02-17T04:26:05.857Z,58.80
2019-02-17T04:31:07.438Z,63.10
2019-02-17T04:36:09.019Z,61.40
2019-02-17T04:41:11.023Z,51.90
2019-02-17T04:46:12.623Z,55.80
2019-02-17T04:51:14.192Z,55.93
2019-02-17T04:56:16.184Z,54.67
2019-02-17T05:01:17.767Z,56.00
2019-02-17T05:06:19.433Z,56.40
2019-02-17T05:11:21.006Z,58.43
2019-02-17T05:16:22.792Z,50.07
2019-02-17T05:21:24.326Z,52.83
2019-02-17T05:26:26.267Z,55.87
2019-02-17T05:31:27.835Z,56.33
2019-02-17T05:36:29.398Z,57.73
2019-02-17T05:41:30.982Z,51.40
2019-02-17T05:46:32.934Z,55.23
2019-02-17T05:51:34.928Z,56.20
2019-02-17T05:56:36.485Z,58.63
2019-02-17T06:01:38.094Z,55.03
2019-02-17T06:06:39.646Z,56.30
2019-02-17T06:11:41.696Z,54.40
2019-02-17T06:16:43.323Z,55.20
2019-02-17T06:21:44.947Z,58.70
2019-02-17T06:26:46.555Z,56.93
2019-02-17T06:31:48.140Z,55.60
2019-02-17T06:36:49.767Z,60.57
2019-02-17T06:41:51.354Z,53.90
2019-02-17T06:46:53.014Z,54.90
2019-02-17T06:51:55.069Z,55.77
2019-02-17T06:56:56.696Z,53.93
2019-02-17T07:01:58.355Z,52.33
2019-02-17T07:07:00.315Z,52.17
2019-02-17T07:12:01.979Z,53.40
2019-02-17T07:17:03.571Z,51.10
2019-02-17T07:22:05.216Z,50.33
2019-02-17T07:27:06.782Z,48.90
2019-02-17T07:32:08.702Z,46.97
2019-02-17T07:37:10.654Z,49.93
2019-02-17T07:42:12.362Z,51.33
2019-02-17T07:47:14.397Z,47.93
2019-02-17T07:52:16.285Z,48.20
2019-02-17T07:57:17.908Z,49.03
2019-02-17T08:02:19.558Z,49.77
2019-02-17T08:07:22.089Z,47.17
2019-02-17T08:12:23.698Z,50.87
2019-02-17T08:17:25.259Z,46.37
2019-02-17T08:22:26.865Z,52.50
2019-02-17T08:27:28.497Z,47.37
2019-02-17T08:32:30.154Z,47.83
2019-02-17T08:37:32.159Z,45.17
2019-02-17T08:42:33.780Z,49.60
2019-02-17T08:47:35.367Z,54.17
2019-02-17T08:52:37.376Z,53.73
2019-02-17T08:57:39.122Z,54.03
2019-02-17T09:02:41.056Z,50.13
2019-02-17T09:07:42.665Z,44.17
2019-02-17T09:12:44.286Z,45.77
2019-02-17T09:17:46.977Z,55.50
2019-02-17T09:22:48.549Z,46.20
2019-02-17T09:27:50.129Z,47.33
2019-02-17T09:32:51.735Z,50.70
2019-02-17T09:37:53.517Z,44.23
2019-02-17T09:42:55.138Z,46.37
2019-02-17T09:47:57.153Z,44.17
2019-02-17T09:52:58.869Z,42.20
2019-02-17T09:58:00.589Z,43.97
2019-02-17T10:03:02.254Z,49.07
2019-02-17T10:08:03.891Z,47.00
2019-02-17T10:13:05.560Z,47.77
2019-02-17T10:18:07.153Z,44.47
2019-02-17T10:23:08.910Z,41.70
2019-02-17T10:28:10.518Z,42.87
2019-02-17T10:33:12.135Z,48.87
2019-02-17T10:38:14.001Z,45.53
2019-02-17T10:43:15.597Z,44.83
2019-02-17T10:48:17.241Z,37.33
2019-02-17T10:53:19.239Z,41.50
2019-02-17T10:58:20.799Z,38.20
2019-02-17T11:03:22.514Z,41.77
2019-02-17T11:08:24.103Z,39.60
2019-02-17T11:13:25.705Z,40.27
2019-02-17T11:18:27.246Z,40.53
2019-02-17T11:23:29.232Z,36.20
2019-02-17T11:28:30.949Z,40.90
2019-02-17T11:33:32.523Z,38.03
2019-02-17T11:38:34.225Z,38.00
2019-02-17T11:43:35.809Z,39.30
2019-02-17T11:48:37.783Z,37.63
2019-02-17T11:53:39.432Z,39.07
2019-02-17T11:58:41.184Z,39.30
2019-02-17T12:03:42.768Z,39.40
2019-02-17T12:08:46.091Z,37.27
2019-02-17T12:13:49.967Z,37.17
2019-02-17T12:18:51.578Z,35.77
2019-02-17T12:23:53.290Z,40.40
2019-02-17T12:28:54.900Z,40.47
2019-02-17T12:33:56.711Z,38.83
2019-02-17T12:39:00.732Z,37.17
2019-02-17T12:44:02.399Z,38.83
2019-02-17T12:49:05.552Z,37.60
2019-02-17T12:54:07.164Z,31.57
2019-02-17T12:59:08.801Z,38.73
2019-02-17T13:04:10.424Z,37.08
2019-02-17T13:09:12.064Z,36.50
2019-02-17T13:14:13.733Z,35.85
2019-02-17T13:19:15.369Z,33.00
2019-02-17T13:24:17.036Z,34.73
2019-02-17T13:29:18.614Z,34.38
2019-02-17T13:34:20.758Z,33.18
2019-02-17T13:39:22.923Z,33.25
2019-02-17T13:44:24.511Z,35.58
2019-02-17T13:49:26.115Z,35.70
2019-02-17T13:54:27.693Z,34.85
2019-02-17T13:59:29.370Z,30.37
2019-02-17T14:04:30.945Z,28.35
2019-02-17T14:09:33.440Z,32.30
2019-02-17T14:14:35.502Z,28.87
2019-02-17T14:19:37.062Z,32.28
2019-02-17T14:24:38.713Z,33.05
2019-02-17T14:29:40.411Z,32.30
2019-02-17T14:34:42.028Z,28.17
2019-02-17T14:39:43.625Z,32.48
2019-02-17T14:44:45.278Z,27.40
2019-02-17T14:49:47.465Z,30.08
2019-02-17T14:54:49.440Z,32.03
2019-02-17T14:59:51.026Z,27.82
2019-02-17T15:04:52.778Z,27.40
2019-02-17T15:09:54.370Z,32.50
2019-02-17T15:14:56.047Z,29.75
2019-02-17T15:19:57.985Z,27.15
2019-02-17T15:24:59.589Z,26.77
2019-02-17T15:30:01.307Z,27.42
2019-02-17T15:35:04.002Z,24.45
2019-02-17T15:40:06.143Z,28.90
2019-02-17T15:45:08.232Z,28.23
2019-02-17T15:50:10.988Z,30.08
2019-02-17T15:55:12.695Z,31.25
2019-02-17T16:00:14.429Z,30.72
2019-02-17T16:05:16.170Z,32.63
2019-02-17T16:10:18.150Z,34.33
2019-02-17T16:15:19.771Z,30.82
2019-02-17T16:20:21.505Z,29.95
2019-02-17T16:25:24.982Z,28.70
2019-02-17T16:30:26.578Z,32.55
2019-02-17T16:35:28.234Z,27.43
2019-02-17T16:40:29.807Z,27.40
2019-02-17T16:45:31.427Z,25.70
2019-02-17T16:50:33.021Z,21.40
2019-02-17T16:55:34.728Z,22.83
2019-02-17T17:00:36.281Z,24.87
2019-02-17T17:05:37.868Z,29.20
2019-02-17T17:10:39.668Z,27.13
2019-02-17T17:15:41.542Z,27.43
2019-02-17T17:20:44.052Z,22.00
2019-02-17T17:25:46.638Z,27.20
2019-02-17T17:30:48.272Z,29.13
2019-02-17T17:35:49.881Z,29.07
2019-02-17T17:40:52.291Z,29.97
2019-02-17T17:45:53.921Z,31.07
2019-02-17T17:50:56.089Z,25.80
2019-02-17T17:55:57.789Z,25.27
2019-02-17T18:01:00.513Z,21.20
2019-02-17T18:06:02.210Z,21.37
2019-02-17T18:11:03.840Z,23.60
2019-02-17T18:16:05.827Z,29.10
2019-02-17T18:21:07.491Z,28.30
2019-02-17T18:26:09.210Z,24.13
2019-02-17T18:31:11.228Z,25.17
2019-02-17T18:36:12.862Z,22.83
2019-02-17T18:41:16.697Z,21.40
2019-02-17T18:46:18.380Z,22.70
2019-02-17T18:51:20.094Z,20.77
2019-02-17T18:56:21.675Z,20.80
2019-02-17T19:01:23.664Z,21.27
2019-02-17T19:06:25.255Z,21.07
2019-02-17T19:11:26.982Z,20.03
2019-02-17T19:16:28.731Z,18.60
2019-02-17T19:21:30.733Z,19.47
2019-02-17T19:26:32.368Z,22.00
2019-02-17T19:31:34.029Z,20.33
2019-02-17T19:36:35.575Z,20.90
2019-02-17T19:41:37.184Z,22.10
2019-02-17T19:46:38.872Z,21.83
2019-02-17T19:51:40.483Z,28.73
2019-02-17T19:56:42.105Z,35.90
2019-02-17T20:01:43.673Z,26.33
2019-02-17T20:06:45.733Z,24.50
2019-02-17T20:11:47.367Z,24.03
2019-02-17T20:16:48.941Z,27.53
2019-02-17T20:21:50.796Z,26.60
2019-02-17T20:26:52.359Z,25.67
2019-02-17T20:31:53.934Z,24.20
2019-02-17T20:36:56.051Z,25.97
2019-02-17T20:41:58.871Z,27.43
2019-02-17T20:47:00.441Z,25.17
2019-02-17T20:52:02.003Z,23.93
2019-02-17T20:57:03.664Z,22.33
2019-02-17T21:02:05.746Z,27.23
2019-02-17T21:07:07.619Z,30.50
2019-02-17T21:12:10.517Z,33.10
2019-02-17T21:17:12.196Z,33.00
2019-02-17T21:22:13.874Z,31.93
2019-02-17T21:27:20.002Z,30.07
2019-02-17T21:32:21.636Z,33.17
2019-02-17T21:37:23.626Z,29.77
2019-02-17T21:42:25.211Z,30.60
2019-02-17T21:47:26.954Z,33.83
2019-02-17T21:52:29.024Z,37.23
2019-02-17T21:57:30.715Z,26.83
2019-02-17T22:02:32.379Z,25.37
2019-02-17T22:07:35.107Z,22.40
2019-02-17T22:12:37.077Z,26.17
2019-02-17T22:17:38.807Z,22.90
2019-02-17T22:22:40.504Z,25.07
2019-02-17T22:27:43.055Z,23.10
2019-02-17T22:32:44.614Z,20.20
2019-02-17T22:37:46.242Z,20.43
2019-02-17T22:42:48.254Z,27.20
2019-02-17T22:47:49.797Z,20.97
2019-02-17T22:52:51.529Z,24.87
2019-02-17T22:57:53.143Z,24.87
2019-02-17T23:02:55.218Z,22.20
2019-02-17T23:07:57.338Z,21.40
2019-02-17T23:12:58.978Z,18.93
2019-02-17T23:18:00.578Z,24.70
2019-02-17T23:23:02.647Z,28.87
2019-02-17T23:28:04.655Z,21.73
2019-02-17T23:33:06.215Z,22.10
2019-02-17T23:38:07.868Z,21.70
2019-02-17T23:43:09.465Z,23.93
2019-02-17T23:48:11.088Z,23.30
2019-02-17T23:53:12.657Z,23.50
2019-02-17T23:58:14.266Z,21.93
